createdAt,value
2022-07-25T00:00:16.291Z,15.30
2022-07-25T00:02:44.690Z,13.30
2022-07-25T00:05:12.672Z,12.30
2022-07-25T00:07:40.603Z,18.05
2022-07-25T00:10:09.417Z,12.07
2022-07-25T00:12:38.803Z,11.82
2022-07-25T00:15:07.297Z,10.52
2022-07-25T00:17:35.622Z,12.85
2022-07-25T00:20:04.356Z,16.65
2022-07-25T00:22:33.782Z,13.75
2022-07-25T00:25:02.274Z,15.90
2022-07-25T00:27:30.775Z,12.98
2022-07-25T00:29:58.730Z,19.15
2022-07-25T00:35:12.036Z,12.75
2022-07-25T00:37:40.372Z,16.15
2022-07-25T00:40:09.000Z,10.70
2022-07-25T00:42:37.225Z,16.87
2022-07-25T00:45:06.229Z,16.23
2022-07-25T00:47:34.153Z,10.10
2022-07-25T00:50:02.037Z,11.07
2022-07-25T00:52:31.095Z,9.48
2022-07-25T00:54:59.048Z,17.27
2022-07-25T00:57:27.057Z,15.52
2022-07-25T00:59:55.492Z,14.82
2022-07-25T01:02:23.911Z,15.90
2022-07-25T01:04:52.308Z,12.18
2022-07-25T01:07:20.753Z,13.88
2022-07-25T01:09:49.174Z,15.02
2022-07-25T01:12:17.107Z,13.95
2022-07-25T01:14:45.346Z,16.37
2022-07-25T01:17:13.825Z,11.02
2022-07-25T01:19:41.821Z,13.23
2022-07-25T01:22:10.123Z,10.98
2022-07-25T01:24:39.558Z,12.27
2022-07-25T01:27:07.528Z,21.15
2022-07-25T01:29:36.109Z,14.10
2022-07-25T01:32:04.252Z,14.95
2022-07-25T01:34:32.186Z,13.68
2022-07-25T01:37:00.414Z,13.13
2022-07-25T01:39:28.329Z,11.82
2022-07-25T01:41:56.249Z,18.73
2022-07-25T01:44:24.474Z,14.90
2022-07-25T01:46:53.404Z,15.57
2022-07-25T01:49:21.331Z,14.77
2022-07-25T01:51:49.598Z,18.73
2022-07-25T01:54:17.509Z,14.27
2022-07-25T01:56:48.201Z,14.93
2022-07-25T01:59:17.238Z,11.85
2022-07-25T02:01:45.665Z,15.15
2022-07-25T02:04:16.994Z,16.73
2022-07-25T02:06:45.124Z,16.00
2022-07-25T02:09:13.049Z,15.32
2022-07-25T02:14:09.938Z,18.33
2022-07-25T02:16:38.178Z,17.48
2022-07-25T02:19:06.526Z,20.50
2022-07-25T02:21:34.667Z,11.68
2022-07-25T02:24:02.844Z,18.85
2022-07-25T02:26:31.414Z,15.95
2022-07-25T02:28:59.467Z,20.48
2022-07-25T02:31:27.447Z,16.80
2022-07-25T02:33:56.019Z,15.23
2022-07-25T02:36:24.151Z,11.27
2022-07-25T02:38:52.180Z,16.75
2022-07-25T02:41:20.514Z,16.08
2022-07-25T02:43:48.467Z,18.33
2022-07-25T02:46:16.395Z,17.25
2022-07-25T02:48:44.805Z,16.40
2022-07-25T02:51:12.858Z,14.45
2022-07-25T02:53:56.730Z,16.05
2022-07-25T02:56:29.615Z,13.75
2022-07-25T02:58:58.596Z,14.10
2022-07-25T03:01:29.691Z,15.70
2022-07-25T03:03:57.762Z,16.60
2022-07-25T03:06:26.220Z,15.27
2022-07-25T03:08:54.151Z,14.52
2022-07-25T03:11:22.265Z,18.00
2022-07-25T03:13:50.674Z,21.37
2022-07-25T03:16:18.559Z,17.45
2022-07-25T03:18:46.444Z,19.90
2022-07-25T03:21:14.714Z,14.63
2022-07-25T03:23:42.574Z,9.77
2022-07-25T03:26:10.417Z,12.88
2022-07-25T03:28:38.648Z,19.00
2022-07-25T03:31:06.565Z,14.95
2022-07-25T03:33:35.324Z,18.20
2022-07-25T03:36:03.866Z,15.02
2022-07-25T03:38:31.840Z,18.15
2022-07-25T03:40:59.665Z,17.55
2022-07-25T03:43:27.874Z,18.23
2022-07-25T03:45:55.845Z,15.45
2022-07-25T03:48:23.893Z,16.20
2022-07-25T03:50:52.177Z,17.42
2022-07-25T03:53:20.004Z,22.02
2022-07-25T03:55:47.862Z,18.23
2022-07-25T03:58:16.161Z,20.17
2022-07-25T04:00:44.089Z,20.08
2022-07-25T04:03:12.301Z,17.15
2022-07-25T04:09:02.422Z,15.98
2022-07-25T04:11:31.334Z,12.95
2022-07-25T04:13:59.685Z,14.90
2022-07-25T04:16:27.884Z,12.90
2022-07-25T04:18:56.878Z,13.00
2022-07-25T04:21:25.397Z,17.23
2022-07-25T04:23:55.621Z,11.43
2022-07-25T04:26:26.522Z,11.55
2022-07-25T04:28:54.425Z,9.93
2022-07-25T04:31:22.280Z,9.60
2022-07-25T04:33:50.616Z,11.23
2022-07-25T04:36:18.513Z,10.73
2022-07-25T04:38:46.453Z,10.48
2022-07-25T04:41:14.738Z,7.72
2022-07-25T04:43:47.979Z,8.43
2022-07-25T04:46:21.081Z,6.65
2022-07-25T04:48:50.056Z,8.48
2022-07-25T04:51:19.206Z,7.20
2022-07-25T04:53:47.128Z,7.50
2022-07-25T04:56:15.060Z,8.18
2022-07-25T04:58:45.594Z,8.45
2022-07-25T05:01:13.612Z,9.13
2022-07-25T05:03:41.599Z,7.65
2022-07-25T05:06:19.929Z,8.85
2022-07-25T05:08:48.756Z,5.72
2022-07-25T05:11:16.590Z,8.10
2022-07-25T05:13:44.999Z,6.40
2022-07-25T05:16:12.912Z,7.37
2022-07-25T05:18:40.985Z,8.75
2022-07-25T05:21:12.164Z,7.85
2022-07-25T05:23:40.393Z,9.25
2022-07-25T05:26:08.434Z,6.70
2022-07-25T05:28:36.761Z,7.90
2022-07-25T05:31:05.204Z,6.72
2022-07-25T05:33:35.385Z,6.93
2022-07-25T05:36:05.447Z,5.78
2022-07-25T05:38:33.780Z,5.05
2022-07-25T05:41:01.662Z,5.55
2022-07-25T05:43:29.888Z,4.00
2022-07-25T05:46:02.487Z,5.22
2022-07-25T05:48:31.226Z,5.03
2022-07-25T05:50:59.784Z,8.13
2022-07-25T05:53:28.123Z,5.45
2022-07-25T05:55:56.339Z,7.10
2022-07-25T05:58:43.255Z,6.15
2022-07-25T06:01:15.793Z,5.40
2022-07-25T06:03:44.343Z,5.95
2022-07-25T06:06:12.371Z,6.72
2022-07-25T06:08:40.582Z,5.55
2022-07-25T06:11:09.063Z,6.68
2022-07-25T06:13:37.634Z,5.35
2022-07-25T06:16:06.469Z,5.82
2022-07-25T06:18:34.847Z,5.05
2022-07-25T06:21:02.875Z,5.50
2022-07-25T06:23:32.223Z,7.10
2022-07-25T06:26:00.485Z,5.15
2022-07-25T06:28:28.694Z,6.70
2022-07-25T06:30:56.649Z,6.50
2022-07-25T06:33:24.872Z,6.93
2022-07-25T06:35:52.953Z,6.03
2022-07-25T06:38:20.756Z,5.30
2022-07-25T06:40:49.098Z,5.15
2022-07-25T06:43:16.965Z,5.65
2022-07-25T06:45:47.781Z,7.43
2022-07-25T06:48:17.294Z,4.68
2022-07-25T06:50:45.680Z,5.90
2022-07-25T06:53:13.749Z,5.60
2022-07-25T06:55:42.042Z,6.47
2022-07-25T06:58:09.929Z,8.40
2022-07-25T07:00:37.857Z,6.45
2022-07-25T07:03:06.271Z,5.82
2022-07-25T07:05:36.945Z,7.40
2022-07-25T07:08:05.352Z,6.95
2022-07-25T07:10:33.855Z,7.20
2022-07-25T07:13:13.249Z,8.40
2022-07-25T07:15:48.573Z,6.45
2022-07-25T07:18:17.786Z,6.10
2022-07-25T07:20:46.486Z,8.38
2022-07-25T07:23:17.033Z,6.15
2022-07-25T07:25:47.583Z,5.43
2022-07-25T07:28:16.556Z,6.20
2022-07-25T07:31:14.509Z,5.43
2022-07-25T07:33:33.913Z,7.22
2022-07-25T07:36:03.003Z,5.95
2022-07-25T07:38:30.951Z,5.85
2022-07-25T07:41:01.418Z,7.22
2022-07-25T07:43:32.125Z,7.87
2022-07-25T07:46:03.439Z,6.35
2022-07-25T07:48:32.833Z,5.87
2022-07-25T07:51:02.507Z,7.15
2022-07-25T07:53:49.862Z,5.78
2022-07-25T07:56:21.439Z,8.80
2022-07-25T07:58:49.436Z,8.63
2022-07-25T08:01:17.587Z,7.30
2022-07-25T08:03:46.028Z,5.18
2022-07-25T08:06:13.946Z,8.10
2022-07-25T08:08:41.833Z,7.25
2022-07-25T08:11:10.316Z,6.85
2022-07-25T08:13:41.267Z,5.75
2022-07-25T08:16:09.243Z,7.00
2022-07-25T08:18:37.789Z,6.07
2022-07-25T08:21:06.782Z,5.78
2022-07-25T08:23:35.845Z,6.68
2022-07-25T08:26:04.992Z,7.78
2022-07-25T08:28:33.151Z,7.12
2022-07-25T08:31:03.319Z,6.15
2022-07-25T08:33:32.106Z,6.27
2022-07-25T08:36:00.448Z,4.95
2022-07-25T08:38:29.695Z,5.57
2022-07-25T08:40:58.424Z,4.62
2022-07-25T08:43:26.361Z,5.65
2022-07-25T08:45:56.010Z,4.95
2022-07-25T08:48:26.405Z,5.87
2022-07-25T08:50:57.479Z,6.32
2022-07-25T08:56:13.679Z,7.97
2022-07-25T08:58:45.879Z,8.50
2022-07-25T09:01:14.676Z,7.10
2022-07-25T09:03:44.032Z,6.12
2022-07-25T09:06:18.253Z,6.57
2022-07-25T09:08:57.880Z,8.00
2022-07-25T09:11:31.691Z,5.65
2022-07-25T09:14:11.331Z,5.32
2022-07-25T09:16:45.548Z,4.10
2022-07-25T09:19:16.612Z,6.78
2022-07-25T09:21:46.445Z,6.25
2022-07-25T09:24:19.598Z,5.05
2022-07-25T09:26:50.515Z,5.82
2022-07-25T09:29:22.579Z,5.00
2022-07-25T09:31:52.425Z,5.22
2022-07-25T09:34:38.473Z,6.78
2022-07-25T09:37:12.781Z,8.73
2022-07-25T09:39:47.289Z,7.65
2022-07-25T09:42:32.598Z,6.70
2022-07-25T09:45:13.080Z,7.97
2022-07-25T09:47:58.912Z,5.75
2022-07-25T09:50:29.606Z,5.35
2022-07-25T09:53:02.359Z,5.20
2022-07-25T09:55:32.666Z,4.40
2022-07-25T09:58:00.922Z,5.35
2022-07-25T10:00:29.814Z,6.45
2022-07-25T10:03:36.244Z,6.78
2022-07-25T10:06:52.414Z,5.35
2022-07-25T10:09:21.141Z,6.32
2022-07-25T10:12:11.890Z,6.05
2022-07-25T10:14:40.420Z,6.30
2022-07-25T10:17:08.992Z,6.05
2022-07-25T10:19:51.808Z,6.10
2022-07-25T10:22:46.617Z,6.32
2022-07-25T10:25:17.082Z,5.72
2022-07-25T10:27:53.189Z,5.25
2022-07-25T10:30:26.387Z,5.80
2022-07-25T10:33:21.781Z,6.07
2022-07-25T10:35:49.791Z,8.38
2022-07-25T10:38:25.358Z,7.25
2022-07-25T10:40:53.591Z,5.90
2022-07-25T10:43:23.028Z,7.25
2022-07-25T10:45:58.078Z,7.05
2022-07-25T10:48:32.665Z,7.05
2022-07-25T10:51:07.294Z,8.27
2022-07-25T10:53:48.683Z,7.20
2022-07-25T10:56:20.218Z,7.20
2022-07-25T11:01:34.390Z,6.75
2022-07-25T11:04:14.794Z,7.28
2022-07-25T11:06:44.844Z,8.82
2022-07-25T11:09:24.964Z,6.95
2022-07-25T11:11:58.765Z,5.95
2022-07-25T11:14:43.701Z,6.95
2022-07-25T11:17:26.237Z,6.78
2022-07-25T11:20:04.336Z,6.62
2022-07-25T11:22:34.738Z,8.52
2022-07-25T11:25:16.394Z,9.10
2022-07-25T11:27:44.231Z,5.97
2022-07-25T11:30:17.750Z,7.20
2022-07-25T11:32:51.232Z,5.75
2022-07-25T11:35:24.268Z,8.02
2022-07-25T11:37:53.595Z,7.30
2022-07-25T11:40:23.074Z,6.50
2022-07-25T11:42:54.080Z,9.50
2022-07-25T11:45:25.387Z,6.50
2022-07-25T11:48:04.791Z,7.95
2022-07-25T11:50:34.484Z,7.62
2022-07-25T11:53:05.238Z,7.85
2022-07-25T11:55:41.156Z,7.90
2022-07-25T11:58:10.246Z,10.13
2022-07-25T12:00:43.903Z,8.07
2022-07-25T12:03:19.595Z,8.10
2022-07-25T12:05:50.379Z,8.52
2022-07-25T12:08:20.800Z,8.55
2022-07-25T12:10:51.801Z,8.02
2022-07-25T12:13:27.727Z,9.07
2022-07-25T12:15:58.255Z,9.20
2022-07-25T12:18:27.234Z,7.57
2022-07-25T12:20:55.300Z,7.60
2022-07-25T12:23:23.264Z,7.15
2022-07-25T12:25:51.837Z,8.40
2022-07-25T12:28:19.744Z,7.80
2022-07-25T12:30:52.888Z,7.43
2022-07-25T12:33:24.976Z,6.95
2022-07-25T12:35:53.029Z,8.05
2022-07-25T12:38:21.029Z,6.40
2022-07-25T12:40:49.930Z,7.10
2022-07-25T12:43:17.750Z,10.45
2022-07-25T12:45:45.736Z,9.32
2022-07-25T12:48:15.499Z,10.02
2022-07-25T12:50:44.179Z,7.57
2022-07-25T12:53:13.717Z,9.18
2022-07-25T12:55:42.280Z,8.55
2022-07-25T12:58:10.349Z,7.78
2022-07-25T13:00:38.350Z,9.32
2022-07-25T13:03:06.753Z,9.88
2022-07-25T13:05:34.799Z,9.82
2022-07-25T13:08:05.478Z,7.37
2022-07-25T13:10:33.812Z,9.90
2022-07-25T13:13:01.715Z,8.93
2022-07-25T13:15:30.616Z,8.23
2022-07-25T13:17:59.100Z,8.30
2022-07-25T13:20:27.210Z,9.13
2022-07-25T13:22:55.283Z,10.70
2022-07-25T13:25:23.747Z,11.45
2022-07-25T13:27:51.675Z,11.45
2022-07-25T13:30:19.546Z,10.00
2022-07-25T13:32:47.882Z,11.10
2022-07-25T13:35:20.482Z,11.27
2022-07-25T13:37:49.415Z,7.05
2022-07-25T13:40:17.329Z,11.20
2022-07-25T13:42:45.247Z,8.38
2022-07-25T13:45:13.521Z,12.00
2022-07-25T13:47:41.519Z,8.02
2022-07-25T13:50:09.905Z,9.05
2022-07-25T13:52:38.890Z,10.77
2022-07-25T13:55:07.732Z,9.65
2022-07-25T13:57:35.801Z,9.77
2022-07-25T14:00:05.716Z,10.38
2022-07-25T14:02:33.964Z,9.07
2022-07-25T14:05:04.178Z,8.88
2022-07-25T14:07:32.470Z,10.52
2022-07-25T14:10:00.733Z,12.00
2022-07-25T14:12:30.655Z,12.55
2022-07-25T14:14:58.537Z,9.90
2022-07-25T14:17:30.348Z,12.52
2022-07-25T14:19:58.613Z,9.55
2022-07-25T14:22:26.994Z,8.90
2022-07-25T14:24:55.282Z,10.02
2022-07-25T14:27:23.473Z,8.50
2022-07-25T14:29:51.389Z,8.20
2022-07-25T14:32:20.018Z,8.18
2022-07-25T14:34:47.957Z,8.50
2022-07-25T14:37:15.787Z,9.60
2022-07-25T14:39:44.161Z,8.68
2022-07-25T14:42:12.056Z,10.68
2022-07-25T14:44:40.960Z,10.68
2022-07-25T14:47:12.596Z,10.77
2022-07-25T14:49:41.500Z,9.20
2022-07-25T14:52:11.714Z,10.05
2022-07-25T14:54:40.962Z,11.25
2022-07-25T14:57:10.285Z,8.70
2022-07-25T14:59:38.319Z,8.20
2022-07-25T15:02:06.113Z,11.45
2022-07-25T15:04:34.656Z,8.50
2022-07-25T15:07:02.659Z,9.30
2022-07-25T15:09:33.058Z,10.93
2022-07-25T15:12:01.456Z,10.35
2022-07-25T15:14:29.773Z,8.88
2022-07-25T15:16:57.813Z,10.48
2022-07-25T15:19:26.559Z,9.63
2022-07-25T15:21:54.634Z,7.05
2022-07-25T15:24:27.150Z,12.20
2022-07-25T15:26:58.638Z,9.15
2022-07-25T15:29:28.141Z,8.15
2022-07-25T15:31:56.093Z,8.48
2022-07-25T15:34:24.537Z,8.00
2022-07-25T15:36:54.575Z,8.65
2022-07-25T15:39:23.520Z,10.07
2022-07-25T15:41:51.838Z,8.73
2022-07-25T15:44:19.881Z,11.57
2022-07-25T15:46:50.111Z,11.43
2022-07-25T15:49:37.860Z,11.73
2022-07-25T15:52:06.003Z,12.65
2022-07-25T15:54:34.242Z,20.90
2022-07-25T15:57:02.387Z,8.85
2022-07-25T15:59:30.955Z,9.13
2022-07-25T16:02:00.852Z,8.75
2022-07-25T16:04:29.206Z,7.60
2022-07-25T16:06:57.405Z,11.20
2022-07-25T16:09:25.795Z,7.82
2022-07-25T16:11:54.042Z,10.90
2022-07-25T16:14:21.949Z,9.63
2022-07-25T16:16:49.898Z,8.35
2022-07-25T16:19:18.352Z,10.85
2022-07-25T16:21:46.467Z,10.18
2022-07-25T16:24:14.520Z,7.32
2022-07-25T16:26:42.964Z,9.38
2022-07-25T16:29:11.327Z,9.50
2022-07-25T16:31:40.181Z,12.35
2022-07-25T16:34:08.489Z,14.63
2022-07-25T16:36:36.767Z,14.80
2022-07-25T16:39:05.441Z,12.52
2022-07-25T16:41:33.877Z,10.85
2022-07-25T16:44:01.935Z,15.25
2022-07-25T16:46:30.006Z,11.10
2022-07-25T16:48:58.583Z,11.10
2022-07-25T16:51:26.875Z,8.73
2022-07-25T16:56:41.475Z,13.73
2022-07-25T16:59:10.426Z,10.07
2022-07-25T17:01:38.883Z,14.48
2022-07-25T17:04:08.191Z,14.98
2022-07-25T17:06:37.097Z,12.37
2022-07-25T17:09:05.812Z,13.65
2022-07-25T17:11:37.356Z,12.37
2022-07-25T17:14:05.412Z,14.50
2022-07-25T17:16:33.566Z,12.00
2022-07-25T17:19:03.171Z,11.80
2022-07-25T17:21:31.053Z,11.30
2022-07-25T17:23:59.090Z,11.70
2022-07-25T17:26:27.531Z,11.45
2022-07-25T17:28:55.861Z,12.95
2022-07-25T17:31:25.197Z,11.93
2022-07-25T17:33:53.616Z,14.40
2022-07-25T17:36:21.614Z,15.57
2022-07-25T17:38:49.512Z,22.58
2022-07-25T17:41:17.883Z,16.73
2022-07-25T17:43:45.824Z,22.98
2022-07-25T17:46:14.117Z,17.58
2022-07-25T17:48:42.528Z,19.80
2022-07-25T17:51:10.482Z,19.23
2022-07-25T17:53:38.594Z,17.33
2022-07-25T17:56:08.805Z,12.82
2022-07-25T17:58:38.091Z,12.85
2022-07-25T18:01:10.667Z,29.20
2022-07-25T18:03:39.183Z,34.63
2022-07-25T18:06:07.273Z,31.55
2022-07-25T18:08:36.160Z,34.40
2022-07-25T18:11:04.525Z,21.70
2022-07-25T18:13:32.406Z,23.10
2022-07-25T18:16:00.385Z,44.00
2022-07-25T18:18:28.706Z,29.70
2022-07-25T18:20:56.580Z,20.40
2022-07-25T18:23:27.291Z,20.62
2022-07-25T18:25:55.603Z,13.50
2022-07-25T18:28:24.561Z,14.55
2022-07-25T18:30:53.339Z,17.70
2022-07-25T18:36:08.088Z,18.08
2022-07-25T18:38:37.242Z,17.55
2022-07-25T18:41:28.602Z,14.57
2022-07-25T18:43:54.220Z,13.52
2022-07-25T18:46:22.519Z,16.52
2022-07-25T18:48:51.157Z,10.93
2022-07-25T18:51:22.430Z,12.10
2022-07-25T18:53:50.445Z,16.23
2022-07-25T18:56:18.414Z,13.90
2022-07-25T18:58:46.705Z,13.38
2022-07-25T19:01:14.721Z,13.82
2022-07-25T19:03:42.695Z,11.52
2022-07-25T19:06:11.120Z,11.23
2022-07-25T19:08:39.274Z,11.00
2022-07-25T19:11:08.814Z,9.90
2022-07-25T19:13:49.999Z,12.05
2022-07-25T19:16:19.710Z,12.77
2022-07-25T19:18:48.228Z,11.82
2022-07-25T19:21:17.133Z,11.88
2022-07-25T19:24:04.444Z,11.10
2022-07-25T19:26:33.009Z,10.45
2022-07-25T19:29:01.121Z,10.70
2022-07-25T19:31:29.155Z,12.32
2022-07-25T19:33:57.568Z,12.57
2022-07-25T19:36:25.660Z,14.73
2022-07-25T19:38:53.809Z,11.23
2022-07-25T19:41:22.391Z,15.77
2022-07-25T19:43:52.643Z,10.88
2022-07-25T19:46:23.062Z,13.45
2022-07-25T19:48:51.574Z,13.85
2022-07-25T19:51:19.601Z,13.52
2022-07-25T19:53:47.538Z,12.77
2022-07-25T19:56:15.865Z,13.60
2022-07-25T19:58:45.385Z,16.52
2022-07-25T20:01:13.802Z,12.60
2022-07-25T20:03:42.614Z,14.85
2022-07-25T20:06:10.546Z,17.75
2022-07-25T20:08:39.713Z,12.68
2022-07-25T20:11:08.620Z,13.75
2022-07-25T20:13:36.827Z,14.30
2022-07-25T20:16:06.082Z,12.85
2022-07-25T20:18:34.549Z,13.90
2022-07-25T20:21:02.432Z,14.20
2022-07-25T20:23:31.107Z,15.63
2022-07-25T20:26:03.505Z,13.35
2022-07-25T20:28:31.924Z,12.90
2022-07-25T20:31:02.010Z,13.90
2022-07-25T20:33:30.939Z,14.75
2022-07-25T20:35:59.340Z,15.43
2022-07-25T20:38:32.634Z,14.68
2022-07-25T20:41:00.589Z,14.50
2022-07-25T20:43:29.070Z,17.58
2022-07-25T20:45:57.877Z,14.60
2022-07-25T20:48:25.983Z,14.40
2022-07-25T20:50:54.697Z,12.32
2022-07-25T20:53:23.123Z,16.37
2022-07-25T20:55:51.432Z,13.95
2022-07-25T20:58:19.847Z,15.82
2022-07-25T21:00:47.907Z,13.05
2022-07-25T21:03:16.769Z,11.73
2022-07-25T21:05:45.112Z,14.75
2022-07-25T21:08:13.045Z,12.48
2022-07-25T21:10:41.088Z,16.20
2022-07-25T21:13:09.397Z,13.32
2022-07-25T21:15:37.549Z,14.32
2022-07-25T21:18:05.621Z,12.55
2022-07-25T21:20:33.846Z,15.23
2022-07-25T21:23:01.759Z,13.13
2022-07-25T21:25:29.667Z,13.85
2022-07-25T21:27:58.001Z,23.27
2022-07-25T21:30:25.959Z,16.00
2022-07-25T21:32:53.824Z,13.68
2022-07-25T21:38:07.602Z,15.13
2022-07-25T21:40:36.466Z,13.05
2022-07-25T21:43:06.484Z,14.30
2022-07-25T21:45:41.660Z,14.90
2022-07-25T21:48:09.770Z,15.23
2022-07-25T21:50:43.535Z,12.98
2022-07-25T21:53:14.895Z,14.70
2022-07-25T21:55:42.748Z,13.65
2022-07-25T21:58:10.831Z,12.90
2022-07-25T22:00:45.509Z,14.13
2022-07-25T22:03:14.242Z,13.45
2022-07-25T22:05:42.274Z,13.35
2022-07-25T22:08:10.171Z,14.18
2022-07-25T22:10:38.480Z,12.82
2022-07-25T22:13:10.317Z,16.65
2022-07-25T22:15:39.394Z,13.05
2022-07-25T22:18:07.475Z,11.60
2022-07-25T22:20:35.442Z,13.50
2022-07-25T22:23:04.306Z,13.50
2022-07-25T22:25:32.270Z,12.23
2022-07-25T22:28:00.654Z,13.05
2022-07-25T22:30:28.904Z,14.00
2022-07-25T22:32:56.753Z,15.77
2022-07-25T22:35:24.703Z,12.15
2022-07-25T22:37:53.035Z,13.18
2022-07-25T22:40:21.197Z,16.27
2022-07-25T22:42:49.282Z,13.45
2022-07-25T22:45:19.728Z,13.30
2022-07-25T22:47:47.663Z,13.52
2022-07-25T22:50:15.581Z,13.95
2022-07-25T22:52:43.935Z,14.87
2022-07-25T22:55:11.969Z,16.23
2022-07-25T22:57:39.877Z,13.32
2022-07-25T23:00:10.179Z,13.55
2022-07-25T23:02:39.129Z,14.25
2022-07-25T23:05:07.867Z,12.18
2022-07-25T23:07:36.299Z,12.93
2022-07-25T23:10:06.036Z,12.77
2022-07-25T23:12:34.112Z,14.20
2022-07-25T23:15:02.795Z,12.65
2022-07-25T23:17:31.936Z,13.00
2022-07-25T23:19:59.830Z,12.98
2022-07-25T23:22:29.772Z,14.35
2022-07-25T23:24:58.850Z,13.02
2022-07-25T23:27:27.443Z,14.75
2022-07-25T23:29:55.809Z,15.70
2022-07-25T23:32:23.734Z,11.43
2022-07-25T23:34:51.691Z,12.45
2022-07-25T23:37:20.031Z,13.40
2022-07-25T23:39:47.954Z,12.13
2022-07-25T23:42:15.834Z,10.23
2022-07-25T23:44:44.592Z,15.10
2022-07-25T23:47:12.543Z,13.85
2022-07-25T23:49:41.224Z,12.75
2022-07-25T23:52:09.483Z,13.88
2022-07-25T23:54:38.763Z,12.52
2022-07-25T23:57:08.552Z,15.95
2022-07-25T23:59:36.852Z,14.18
